sensor_id;sensor_type;location;lat;lon;timestamp;P1;durP1;ratioP1;P2;durP2;ratioP2
65799;SDS011;52544;48.116;11.660;2023-09-08T00:00:52;11.55;;;6.97;;
65799;SDS011;52544;48.116;11.660;2023-09-08T00:03:17;10.85;;;7.35;;
65799;SDS011;52544;48.116;11.660;2023-09-08T00:05:42;11.45;;;7.50;;
65799;SDS011;52544;48.116;11.660;2023-09-08T00:08:08;13.93;;;7.50;;
65799;SDS011;52544;48.116;11.660;2023-09-08T00:10:33;11.57;;;7.18;;
65799;SDS011;52544;48.116;11.660;2023-09-08T00:12:59;10.18;;;7.13;;
65799;SDS011;52544;48.116;11.660;2023-09-08T00:15:24;11.75;;;7.20;;
65799;SDS011;52544;48.116;11.660;2023-09-08T00:17:49;13.43;;;7.47;;
65799;SDS011;52544;48.116;11.660;2023-09-08T00:20:15;10.88;;;7.18;;
65799;SDS011;52544;48.116;11.660;2023-09-08T00:22:40;12.15;;;7.97;;
65799;SDS011;52544;48.116;11.660;2023-09-08T00:25:06;12.95;;;7.47;;
65799;SDS011;52544;48.116;11.660;2023-09-08T00:27:31;11.30;;;7.20;;
65799;SDS011;52544;48.116;11.660;2023-09-08T00:29:57;11.13;;;7.63;;
65799;SDS011;52544;48.116;11.660;2023-09-08T00:32:23;15.07;;;6.95;;
65799;SDS011;52544;48.116;11.660;2023-09-08T00:34:48;12.00;;;7.70;;
65799;SDS011;52544;48.116;11.660;2023-09-08T00:37:14;11.98;;;7.50;;
65799;SDS011;52544;48.116;11.660;2023-09-08T00:39:39;12.55;;;7.80;;
65799;SDS011;52544;48.116;11.660;2023-09-08T00:42:05;11.27;;;6.72;;
65799;SDS011;52544;48.116;11.660;2023-09-08T00:44:32;11.70;;;6.82;;
65799;SDS011;52544;48.116;11.660;2023-09-08T00:46:57;10.93;;;7.15;;
65799;SDS011;52544;48.116;11.660;2023-09-08T00:49:23;10.25;;;7.15;;
65799;SDS011;52544;48.116;11.660;2023-09-08T00:51:49;12.00;;;7.68;;
65799;SDS011;52544;48.116;11.660;2023-09-08T00:54:14;10.98;;;7.55;;
65799;SDS011;52544;48.116;11.660;2023-09-08T00:56:40;12.65;;;7.10;;
65799;SDS011;52544;48.116;11.660;2023-09-08T00:59:06;12.82;;;7.63;;
65799;SDS011;52544;48.116;11.660;2023-09-08T01:01:33;13.38;;;7.97;;
65799;SDS011;52544;48.116;11.660;2023-09-08T01:04:00;13.45;;;8.20;;
65799;SDS011;52544;48.116;11.660;2023-09-08T01:06:26;12.52;;;7.90;;
65799;SDS011;52544;48.116;11.660;2023-09-08T01:08:53;10.40;;;7.10;;
65799;SDS011;52544;48.116;11.660;2023-09-08T01:11:20;11.95;;;7.20;;
65799;SDS011;52544;48.116;11.660;2023-09-08T01:13:46;10.75;;;6.78;;
65799;SDS011;52544;48.116;11.660;2023-09-08T01:16:12;10.60;;;7.28;;
65799;SDS011;52544;48.116;11.660;2023-09-08T01:18:37;11.77;;;7.80;;
65799;SDS011;52544;48.116;11.660;2023-09-08T01:21:12;14.07;;;7.60;;
65799;SDS011;52544;48.116;11.660;2023-09-08T01:26:41;11.50;;;7.28;;
65799;SDS011;52544;48.116;11.660;2023-09-08T01:29:07;10.60;;;7.50;;
65799;SDS011;52544;48.116;11.660;2023-09-08T01:31:33;12.10;;;7.25;;
65799;SDS011;52544;48.116;11.660;2023-09-08T01:34:00;11.55;;;7.72;;
65799;SDS011;52544;48.116;11.660;2023-09-08T01:36:26;15.23;;;6.82;;
65799;SDS011;52544;48.116;11.660;2023-09-08T01:38:52;12.60;;;7.60;;
65799;SDS011;52544;48.116;11.660;2023-09-08T01:41:17;13.05;;;7.07;;
65799;SDS011;52544;48.116;11.660;2023-09-08T01:43:43;12.35;;;7.63;;
65799;SDS011;52544;48.116;11.660;2023-09-08T01:46:08;13.27;;;7.32;;
65799;SDS011;52544;48.116;11.660;2023-09-08T01:48:33;14.70;;;7.25;;
65799;SDS011;52544;48.116;11.660;2023-09-08T01:50:59;11.52;;;7.90;;
65799;SDS011;52544;48.116;11.660;2023-09-08T01:53:24;11.70;;;6.85;;
65799;SDS011;52544;48.116;11.660;2023-09-08T01:55:49;11.48;;;7.18;;
65799;SDS011;52544;48.116;11.660;2023-09-08T01:58:15;11.15;;;7.03;;
65799;SDS011;52544;48.116;11.660;2023-09-08T02:00:40;12.15;;;7.35;;
65799;SDS011;52544;48.116;11.660;2023-09-08T02:03:06;11.10;;;7.55;;
65799;SDS011;52544;48.116;11.660;2023-09-08T02:05:31;12.52;;;7.03;;
65799;SDS011;52544;48.116;11.660;2023-09-08T02:07:56;11.35;;;7.30;;
65799;SDS011;52544;48.116;11.660;2023-09-08T02:10:22;12.82;;;6.80;;
65799;SDS011;52544;48.116;11.660;2023-09-08T02:12:47;12.07;;;7.63;;
65799;SDS011;52544;48.116;11.660;2023-09-08T02:15:13;11.10;;;6.80;;
65799;SDS011;52544;48.116;11.660;2023-09-08T02:17:38;12.13;;;7.55;;
65799;SDS011;52544;48.116;11.660;2023-09-08T02:20:04;13.07;;;7.40;;
65799;SDS011;52544;48.116;11.660;2023-09-08T02:22:29;11.57;;;7.32;;
65799;SDS011;52544;48.116;11.660;2023-09-08T02:24:55;13.13;;;7.75;;
65799;SDS011;52544;48.116;11.660;2023-09-08T02:27:23;10.68;;;7.10;;
65799;SDS011;52544;48.116;11.660;2023-09-08T02:29:48;12.40;;;7.55;;
65799;SDS011;52544;48.116;11.660;2023-09-08T02:32:14;12.15;;;7.30;;
65799;SDS011;52544;48.116;11.660;2023-09-08T02:34:39;10.10;;;6.90;;
65799;SDS011;52544;48.116;11.660;2023-09-08T02:37:06;10.82;;;7.32;;
65799;SDS011;52544;48.116;11.660;2023-09-08T02:39:32;13.43;;;7.05;;
65799;SDS011;52544;48.116;11.660;2023-09-08T02:41:57;10.88;;;7.28;;
65799;SDS011;52544;48.116;11.660;2023-09-08T02:44:23;13.77;;;7.32;;
65799;SDS011;52544;48.116;11.660;2023-09-08T02:46:48;12.35;;;7.45;;
65799;SDS011;52544;48.116;11.660;2023-09-08T02:49:14;11.98;;;7.15;;
65799;SDS011;52544;48.116;11.660;2023-09-08T02:51:39;11.70;;;6.72;;
65799;SDS011;52544;48.116;11.660;2023-09-08T02:54:04;11.48;;;7.35;;
65799;SDS011;52544;48.116;11.660;2023-09-08T02:56:30;10.18;;;6.97;;
65799;SDS011;52544;48.116;11.660;2023-09-08T02:58:55;14.32;;;7.72;;
65799;SDS011;52544;48.116;11.660;2023-09-08T03:01:21;10.68;;;6.97;;
65799;SDS011;52544;48.116;11.660;2023-09-08T03:03:47;12.27;;;7.20;;
65799;SDS011;52544;48.116;11.660;2023-09-08T03:06:13;10.63;;;7.60;;
65799;SDS011;52544;48.116;11.660;2023-09-08T03:08:39;11.23;;;7.28;;
65799;SDS011;52544;48.116;11.660;2023-09-08T03:11:05;15.38;;;7.55;;
65799;SDS011;52544;48.116;11.660;2023-09-08T03:13:31;10.60;;;6.93;;
65799;SDS011;52544;48.116;11.660;2023-09-08T03:16:01;13.75;;;7.38;;
65799;SDS011;52544;48.116;11.660;2023-09-08T03:18:28;10.90;;;6.90;;
65799;SDS011;52544;48.116;11.660;2023-09-08T03:20:54;13.32;;;7.55;;
65799;SDS011;52544;48.116;11.660;2023-09-08T03:23:19;10.95;;;6.72;;
65799;SDS011;52544;48.116;11.660;2023-09-08T03:25:44;11.52;;;6.57;;
65799;SDS011;52544;48.116;11.660;2023-09-08T03:28:10;10.40;;;7.25;;
65799;SDS011;52544;48.116;11.660;2023-09-08T03:30:36;11.50;;;7.68;;
65799;SDS011;52544;48.116;11.660;2023-09-08T03:33:02;12.02;;;7.07;;
65799;SDS011;52544;48.116;11.660;2023-09-08T03:35:27;13.05;;;7.07;;
65799;SDS011;52544;48.116;11.660;2023-09-08T03:37:53;12.30;;;7.15;;
65799;SDS011;52544;48.116;11.660;2023-09-08T03:40:18;11.50;;;7.40;;
65799;SDS011;52544;48.116;11.660;2023-09-08T03:42:43;10.73;;;7.10;;
65799;SDS011;52544;48.116;11.660;2023-09-08T03:45:09;12.48;;;7.32;;
65799;SDS011;52544;48.116;11.660;2023-09-08T03:47:34;12.57;;;7.45;;
65799;SDS011;52544;48.116;11.660;2023-09-08T03:50:00;11.10;;;7.20;;
65799;SDS011;52544;48.116;11.660;2023-09-08T03:52:25;11.30;;;6.93;;
65799;SDS011;52544;48.116;11.660;2023-09-08T03:54:51;11.15;;;7.35;;
65799;SDS011;52544;48.116;11.660;2023-09-08T03:57:16;12.43;;;7.38;;
65799;SDS011;52544;48.116;11.660;2023-09-08T03:59:42;10.73;;;6.95;;
65799;SDS011;52544;48.116;11.660;2023-09-08T04:02:07;11.32;;;7.28;;
65799;SDS011;52544;48.116;11.660;2023-09-08T04:04:33;16.27;;;7.35;;
65799;SDS011;52544;48.116;11.660;2023-09-08T04:06:58;13.15;;;7.43;;
65799;SDS011;52544;48.116;11.660;2023-09-08T04:09:23;11.48;;;6.80;;
65799;SDS011;52544;48.116;11.660;2023-09-08T04:11:49;11.35;;;7.35;;
65799;SDS011;52544;48.116;11.660;2023-09-08T04:14:14;11.27;;;7.43;;
65799;SDS011;52544;48.116;11.660;2023-09-08T04:16:40;12.13;;;6.97;;
65799;SDS011;52544;48.116;11.660;2023-09-08T04:19:05;10.98;;;7.13;;
65799;SDS011;52544;48.116;11.660;2023-09-08T04:21:30;11.18;;;6.90;;
65799;SDS011;52544;48.116;11.660;2023-09-08T04:23:56;12.88;;;7.50;;
65799;SDS011;52544;48.116;11.660;2023-09-08T04:26:21;11.38;;;7.20;;
65799;SDS011;52544;48.116;11.660;2023-09-08T04:28:46;12.20;;;7.55;;
65799;SDS011;52544;48.116;11.660;2023-09-08T04:31:12;10.25;;;7.03;;
65799;SDS011;52544;48.116;11.660;2023-09-08T04:33:38;9.23;;;6.45;;
65799;SDS011;52544;48.116;11.660;2023-09-08T04:36:04;13.02;;;7.82;;
65799;SDS011;52544;48.116;11.660;2023-09-08T04:38:29;13.48;;;7.60;;
65799;SDS011;52544;48.116;11.660;2023-09-08T04:40:54;12.60;;;7.95;;
65799;SDS011;52544;48.116;11.660;2023-09-08T04:43:20;11.63;;;7.45;;
65799;SDS011;52544;48.116;11.660;2023-09-08T04:45:45;15.95;;;8.20;;
65799;SDS011;52544;48.116;11.660;2023-09-08T04:48:11;13.55;;;7.47;;
65799;SDS011;52544;48.116;11.660;2023-09-08T04:50:36;14.48;;;7.40;;
65799;SDS011;52544;48.116;11.660;2023-09-08T04:53:01;13.55;;;7.47;;
65799;SDS011;52544;48.116;11.660;2023-09-08T04:55:27;13.23;;;7.85;;
65799;SDS011;52544;48.116;11.660;2023-09-08T04:57:52;12.80;;;7.20;;
65799;SDS011;52544;48.116;11.660;2023-09-08T05:00:18;11.85;;;7.28;;
65799;SDS011;52544;48.116;11.660;2023-09-08T05:02:43;13.98;;;7.63;;
65799;SDS011;52544;48.116;11.660;2023-09-08T05:05:09;11.27;;;7.13;;
65799;SDS011;52544;48.116;11.660;2023-09-08T05:07:35;13.35;;;6.22;;
65799;SDS011;52544;48.116;11.660;2023-09-08T05:10:00;14.02;;;6.82;;
65799;SDS011;52544;48.116;11.660;2023-09-08T05:12:26;11.10;;;7.05;;
65799;SDS011;52544;48.116;11.660;2023-09-08T05:14:51;13.70;;;7.80;;
65799;SDS011;52544;48.116;11.660;2023-09-08T05:17:25;14.65;;;7.00;;
65799;SDS011;52544;48.116;11.660;2023-09-08T05:19:51;14.52;;;6.72;;
65799;SDS011;52544;48.116;11.660;2023-09-08T05:22:16;14.68;;;7.65;;
65799;SDS011;52544;48.116;11.660;2023-09-08T05:24:42;14.10;;;7.40;;
65799;SDS011;52544;48.116;11.660;2023-09-08T05:27:07;13.77;;;7.40;;
65799;SDS011;52544;48.116;11.660;2023-09-08T05:29:33;13.45;;;7.07;;
65799;SDS011;52544;48.116;11.660;2023-09-08T05:31:58;14.18;;;7.13;;
65799;SDS011;52544;48.116;11.660;2023-09-08T05:34:24;13.10;;;7.35;;
65799;SDS011;52544;48.116;11.660;2023-09-08T05:36:49;12.48;;;7.40;;
65799;SDS011;52544;48.116;11.660;2023-09-08T05:39:14;11.30;;;7.25;;
65799;SDS011;52544;48.116;11.660;2023-09-08T05:41:40;11.85;;;7.03;;
65799;SDS011;52544;48.116;11.660;2023-09-08T05:44:06;11.70;;;7.40;;
65799;SDS011;52544;48.116;11.660;2023-09-08T05:46:31;13.13;;;7.82;;
65799;SDS011;52544;48.116;11.660;2023-09-08T05:48:57;12.55;;;7.70;;
65799;SDS011;52544;48.116;11.660;2023-09-08T05:51:22;14.80;;;8.70;;
65799;SDS011;52544;48.116;11.660;2023-09-08T05:53:48;11.00;;;7.15;;
65799;SDS011;52544;48.116;11.660;2023-09-08T05:56:13;10.20;;;7.30;;
65799;SDS011;52544;48.116;11.660;2023-09-08T05:58:39;14.05;;;7.53;;
65799;SDS011;52544;48.116;11.660;2023-09-08T06:01:04;16.35;;;8.02;;
65799;SDS011;52544;48.116;11.660;2023-09-08T06:03:30;12.48;;;7.82;;
65799;SDS011;52544;48.116;11.660;2023-09-08T06:05:56;14.77;;;7.30;;
65799;SDS011;52544;48.116;11.660;2023-09-08T06:08:22;12.80;;;7.80;;
65799;SDS011;52544;48.116;11.660;2023-09-08T06:10:47;12.38;;;7.65;;
65799;SDS011;52544;48.116;11.660;2023-09-08T06:13:13;12.13;;;7.88;;
65799;SDS011;52544;48.116;11.660;2023-09-08T06:15:38;12.57;;;7.15;;
65799;SDS011;52544;48.116;11.660;2023-09-08T06:18:04;13.88;;;8.13;;
65799;SDS011;52544;48.116;11.660;2023-09-08T06:20:30;13.18;;;7.50;;
65799;SDS011;52544;48.116;11.660;2023-09-08T06:22:55;13.50;;;7.95;;
65799;SDS011;52544;48.116;11.660;2023-09-08T06:25:21;14.48;;;8.25;;
65799;SDS011;52544;48.116;11.660;2023-09-08T06:27:46;14.45;;;8.35;;
65799;SDS011;52544;48.116;11.660;2023-09-08T06:30:12;18.15;;;9.00;;
65799;SDS011;52544;48.116;11.660;2023-09-08T06:32:41;13.23;;;7.40;;
65799;SDS011;52544;48.116;11.660;2023-09-08T06:35:07;12.40;;;8.10;;
65799;SDS011;52544;48.116;11.660;2023-09-08T06:37:36;11.68;;;7.93;;
65799;SDS011;52544;48.116;11.660;2023-09-08T06:40:05;16.75;;;8.50;;
65799;SDS011;52544;48.116;11.660;2023-09-08T06:42:31;12.60;;;8.40;;
65799;SDS011;52544;48.116;11.660;2023-09-08T06:44:57;12.02;;;8.27;;
65799;SDS011;52544;48.116;11.660;2023-09-08T06:47:23;14.45;;;8.35;;
65799;SDS011;52544;48.116;11.660;2023-09-08T06:49:49;13.88;;;8.80;;
65799;SDS011;52544;48.116;11.660;2023-09-08T06:52:14;14.23;;;8.48;;
65799;SDS011;52544;48.116;11.660;2023-09-08T06:54:39;16.10;;;9.02;;
65799;SDS011;52544;48.116;11.660;2023-09-08T06:57:05;15.07;;;8.88;;
65799;SDS011;52544;48.116;11.660;2023-09-08T06:59:30;16.25;;;8.18;;
65799;SDS011;52544;48.116;11.660;2023-09-08T07:01:56;12.70;;;8.02;;
65799;SDS011;52544;48.116;11.660;2023-09-08T07:04:21;17.40;;;7.88;;
65799;SDS011;52544;48.116;11.660;2023-09-08T07:06:47;11.63;;;7.50;;
65799;SDS011;52544;48.116;11.660;2023-09-08T07:09:12;12.75;;;7.03;;
65799;SDS011;52544;48.116;11.660;2023-09-08T07:11:38;11.13;;;7.00;;
65799;SDS011;52544;48.116;11.660;2023-09-08T07:14:03;12.60;;;7.53;;
65799;SDS011;52544;48.116;11.660;2023-09-08T07:16:28;14.90;;;7.28;;
65799;SDS011;52544;48.116;11.660;2023-09-08T07:18:54;13.82;;;8.27;;
65799;SDS011;52544;48.116;11.660;2023-09-08T07:21:19;11.55;;;7.40;;
65799;SDS011;52544;48.116;11.660;2023-09-08T07:23:45;9.32;;;7.13;;
65799;SDS011;52544;48.116;11.660;2023-09-08T07:26:10;11.13;;;6.90;;
65799;SDS011;52544;48.116;11.660;2023-09-08T07:28:35;11.90;;;7.75;;
65799;SDS011;52544;48.116;11.660;2023-09-08T07:31:01;11.93;;;7.97;;
65799;SDS011;52544;48.116;11.660;2023-09-08T07:33:28;11.85;;;7.90;;
65799;SDS011;52544;48.116;11.660;2023-09-08T07:35:53;11.73;;;7.68;;
65799;SDS011;52544;48.116;11.660;2023-09-08T07:38:19;13.07;;;8.30;;
65799;SDS011;52544;48.116;11.660;2023-09-08T07:40:44;11.85;;;7.72;;
65799;SDS011;52544;48.116;11.660;2023-09-08T07:43:09;11.25;;;8.20;;
65799;SDS011;52544;48.116;11.660;2023-09-08T07:45:35;13.73;;;8.27;;
65799;SDS011;52544;48.116;11.660;2023-09-08T07:48:00;12.25;;;8.27;;
65799;SDS011;52544;48.116;11.660;2023-09-08T07:50:27;13.13;;;8.27;;
65799;SDS011;52544;48.116;11.660;2023-09-08T07:52:54;12.55;;;7.38;;
65799;SDS011;52544;48.116;11.660;2023-09-08T07:55:21;22.95;;;9.63;;
65799;SDS011;52544;48.116;11.660;2023-09-08T07:57:48;12.38;;;8.05;;
65799;SDS011;52544;48.116;11.660;2023-09-08T08:00:14;13.90;;;8.68;;
65799;SDS011;52544;48.116;11.660;2023-09-08T08:02:45;11.82;;;7.97;;
65799;SDS011;52544;48.116;11.660;2023-09-08T08:05:13;15.18;;;8.48;;
65799;SDS011;52544;48.116;11.660;2023-09-08T08:07:39;10.95;;;7.95;;
65799;SDS011;52544;48.116;11.660;2023-09-08T08:10:08;11.90;;;8.35;;
65799;SDS011;52544;48.116;11.660;2023-09-08T08:12:34;15.73;;;8.77;;
65799;SDS011;52544;48.116;11.660;2023-09-08T08:15:00;13.18;;;8.25;;
65799;SDS011;52544;48.116;11.660;2023-09-08T08:17:26;13.32;;;8.85;;
65799;SDS011;52544;48.116;11.660;2023-09-08T08:19:53;15.18;;;9.55;;
65799;SDS011;52544;48.116;11.660;2023-09-08T08:22:19;17.75;;;10.02;;
65799;SDS011;52544;48.116;11.660;2023-09-08T08:24:45;16.50;;;10.35;;
65799;SDS011;52544;48.116;11.660;2023-09-08T08:27:10;13.50;;;8.65;;
65799;SDS011;52544;48.116;11.660;2023-09-08T08:29:36;15.60;;;8.85;;
65799;SDS011;52544;48.116;11.660;2023-09-08T08:32:01;14.63;;;8.70;;
65799;SDS011;52544;48.116;11.660;2023-09-08T08:34:27;14.35;;;8.68;;
65799;SDS011;52544;48.116;11.660;2023-09-08T08:36:53;17.15;;;8.88;;
65799;SDS011;52544;48.116;11.660;2023-09-08T08:39:18;13.85;;;8.05;;
65799;SDS011;52544;48.116;11.660;2023-09-08T08:41:44;13.70;;;8.57;;
65799;SDS011;52544;48.116;11.660;2023-09-08T08:44:10;17.48;;;8.90;;
65799;SDS011;52544;48.116;11.660;2023-09-08T08:46:36;13.52;;;8.43;;
65799;SDS011;52544;48.116;11.660;2023-09-08T08:49:05;17.38;;;9.05;;
65799;SDS011;52544;48.116;11.660;2023-09-08T08:51:31;13.32;;;8.15;;
65799;SDS011;52544;48.116;11.660;2023-09-08T08:53:57;14.27;;;8.57;;
65799;SDS011;52544;48.116;11.660;2023-09-08T08:56:23;16.05;;;8.52;;
65799;SDS011;52544;48.116;11.660;2023-09-08T08:58:49;19.63;;;10.10;;
65799;SDS011;52544;48.116;11.660;2023-09-08T09:01:18;11.23;;;7.95;;
65799;SDS011;52544;48.116;11.660;2023-09-08T09:03:49;15.43;;;8.55;;
65799;SDS011;52544;48.116;11.660;2023-09-08T09:06:15;14.30;;;8.63;;
65799;SDS011;52544;48.116;11.660;2023-09-08T09:08:42;9.85;;;7.55;;
65799;SDS011;52544;48.116;11.660;2023-09-08T09:11:09;11.77;;;8.35;;
65799;SDS011;52544;48.116;11.660;2023-09-08T09:13:34;15.00;;;8.73;;
65799;SDS011;52544;48.116;11.660;2023-09-08T09:16:00;12.90;;;8.68;;
65799;SDS011;52544;48.116;11.660;2023-09-08T09:18:28;11.98;;;8.02;;
65799;SDS011;52544;48.116;11.660;2023-09-08T09:20:57;10.75;;;7.15;;
65799;SDS011;52544;48.116;11.660;2023-09-08T09:25:54;12.30;;;8.38;;
65799;SDS011;52544;48.116;11.660;2023-09-08T09:28:19;13.63;;;8.65;;
65799;SDS011;52544;48.116;11.660;2023-09-08T09:30:49;14.98;;;9.57;;
65799;SDS011;52544;48.116;11.660;2023-09-08T09:33:17;15.45;;;9.82;;
65799;SDS011;52544;48.116;11.660;2023-09-08T09:35:43;13.77;;;8.77;;
65799;SDS011;52544;48.116;11.660;2023-09-08T09:38:10;11.95;;;8.63;;
65799;SDS011;52544;48.116;11.660;2023-09-08T09:40:37;13.52;;;9.13;;
65799;SDS011;52544;48.116;11.660;2023-09-08T09:43:03;11.57;;;8.40;;
65799;SDS011;52544;48.116;11.660;2023-09-08T09:45:30;10.98;;;7.80;;
65799;SDS011;52544;48.116;11.660;2023-09-08T09:47:56;14.05;;;8.48;;
65799;SDS011;52544;48.116;11.660;2023-09-08T09:50:32;12.15;;;8.32;;
65799;SDS011;52544;48.116;11.660;2023-09-08T09:53:03;14.02;;;8.07;;
65799;SDS011;52544;48.116;11.660;2023-09-08T09:55:34;11.52;;;8.25;;
65799;SDS011;52544;48.116;11.660;2023-09-08T09:58:03;12.15;;;9.02;;
65799;SDS011;52544;48.116;11.660;2023-09-08T10:00:30;13.05;;;8.38;;
65799;SDS011;52544;48.116;11.660;2023-09-08T10:02:58;11.85;;;8.13;;
65799;SDS011;52544;48.116;11.660;2023-09-08T10:05:24;10.13;;;8.13;;
65799;SDS011;52544;48.116;11.660;2023-09-08T10:07:50;12.23;;;7.95;;
65799;SDS011;52544;48.116;11.660;2023-09-08T10:10:16;9.60;;;7.53;;
65799;SDS011;52544;48.116;11.660;2023-09-08T10:12:44;12.55;;;8.07;;
65799;SDS011;52544;48.116;11.660;2023-09-08T10:15:10;15.32;;;8.30;;
65799;SDS011;52544;48.116;11.660;2023-09-08T10:17:37;11.82;;;7.93;;
65799;SDS011;52544;48.116;11.660;2023-09-08T10:20:04;11.23;;;8.13;;
65799;SDS011;52544;48.116;11.660;2023-09-08T10:22:36;17.58;;;8.98;;
65799;SDS011;52544;48.116;11.660;2023-09-08T10:25:06;12.07;;;8.13;;
65799;SDS011;52544;48.116;11.660;2023-09-08T10:27:33;12.77;;;8.23;;
65799;SDS011;52544;48.116;11.660;2023-09-08T10:30:01;12.55;;;8.30;;
65799;SDS011;52544;48.116;11.660;2023-09-08T10:32:29;14.98;;;8.68;;
65799;SDS011;52544;48.116;11.660;2023-09-08T10:34:56;16.08;;;8.43;;
65799;SDS011;52544;48.116;11.660;2023-09-08T10:37:24;11.98;;;7.75;;
65799;SDS011;52544;48.116;11.660;2023-09-08T10:39:50;12.80;;;7.93;;
65799;SDS011;52544;48.116;11.660;2023-09-08T10:44:55;9.40;;;7.25;;
65799;SDS011;52544;48.116;11.660;2023-09-08T10:47:25;10.55;;;7.63;;
65799;SDS011;52544;48.116;11.660;2023-09-08T10:52:24;11.38;;;8.40;;
65799;SDS011;52544;48.116;11.660;2023-09-08T10:54:51;11.40;;;7.47;;
65799;SDS011;52544;48.116;11.660;2023-09-08T10:57:18;13.23;;;7.85;;
65799;SDS011;52544;48.116;11.660;2023-09-08T11:05:03;11.82;;;8.10;;
65799;SDS011;52544;48.116;11.660;2023-09-08T11:07:32;10.43;;;8.02;;
65799;SDS011;52544;48.116;11.660;2023-09-08T11:10:01;11.02;;;8.10;;
65799;SDS011;52544;48.116;11.660;2023-09-08T11:12:28;11.02;;;7.82;;
65799;SDS011;52544;48.116;11.660;2023-09-08T11:14:53;9.85;;;7.97;;
65799;SDS011;52544;48.116;11.660;2023-09-08T11:17:19;11.40;;;8.02;;
65799;SDS011;52544;48.116;11.660;2023-09-08T11:19:45;13.15;;;7.82;;
65799;SDS011;52544;48.116;11.660;2023-09-08T11:22:12;10.68;;;8.05;;
65799;SDS011;52544;48.116;11.660;2023-09-08T11:24:40;10.02;;;7.80;;
65799;SDS011;52544;48.116;11.660;2023-09-08T11:27:07;9.57;;;7.32;;
65799;SDS011;52544;48.116;11.660;2023-09-08T11:29:32;11.48;;;7.80;;
65799;SDS011;52544;48.116;11.660;2023-09-08T11:31:58;10.43;;;7.85;;
65799;SDS011;52544;48.116;11.660;2023-09-08T11:34:23;11.95;;;8.02;;
65799;SDS011;52544;48.116;11.660;2023-09-08T11:36:49;9.85;;;7.78;;
65799;SDS011;52544;48.116;11.660;2023-09-08T11:39:14;10.80;;;7.70;;
65799;SDS011;52544;48.116;11.660;2023-09-08T11:41:40;11.73;;;8.23;;
65799;SDS011;52544;48.116;11.660;2023-09-08T11:44:06;10.65;;;8.18;;
65799;SDS011;52544;48.116;11.660;2023-09-08T11:46:31;13.77;;;7.93;;
65799;SDS011;52544;48.116;11.660;2023-09-08T11:48:57;11.98;;;7.82;;
65799;SDS011;52544;48.116;11.660;2023-09-08T11:51:23;11.82;;;7.15;;
65799;SDS011;52544;48.116;11.660;2023-09-08T11:53:49;16.63;;;8.65;;
65799;SDS011;52544;48.116;11.660;2023-09-08T11:56:14;10.27;;;7.70;;
65799;SDS011;52544;48.116;11.660;2023-09-08T11:58:41;11.77;;;7.45;;
65799;SDS011;52544;48.116;11.660;2023-09-08T12:01:07;10.80;;;7.57;;
65799;SDS011;52544;48.116;11.660;2023-09-08T12:03:33;15.48;;;8.10;;
65799;SDS011;52544;48.116;11.660;2023-09-08T12:05:58;13.20;;;8.50;;
65799;SDS011;52544;48.116;11.660;2023-09-08T12:08:25;12.02;;;8.68;;
65799;SDS011;52544;48.116;11.660;2023-09-08T12:10:53;16.40;;;9.55;;
65799;SDS011;52544;48.116;11.660;2023-09-08T12:13:24;14.55;;;8.68;;
65799;SDS011;52544;48.116;11.660;2023-09-08T12:15:50;15.32;;;8.68;;
65799;SDS011;52544;48.116;11.660;2023-09-08T12:18:15;13.23;;;8.25;;
65799;SDS011;52544;48.116;11.660;2023-09-08T12:20:41;11.73;;;8.32;;
65799;SDS011;52544;48.116;11.660;2023-09-08T12:23:17;13.25;;;8.18;;
65799;SDS011;52544;48.116;11.660;2023-09-08T12:25:48;10.43;;;7.88;;
65799;SDS011;52544;48.116;11.660;2023-09-08T12:28:15;13.55;;;8.50;;
65799;SDS011;52544;48.116;11.660;2023-09-08T12:30:42;13.57;;;8.13;;
65799;SDS011;52544;48.116;11.660;2023-09-08T12:33:08;11.60;;;7.85;;
65799;SDS011;52544;48.116;11.660;2023-09-08T12:35:35;13.48;;;8.27;;
65799;SDS011;52544;48.116;11.660;2023-09-08T12:38:04;12.30;;;8.15;;
65799;SDS011;52544;48.116;11.660;2023-09-08T12:40:34;17.42;;;8.52;;
65799;SDS011;52544;48.116;11.660;2023-09-08T12:43:00;13.77;;;8.30;;
65799;SDS011;52544;48.116;11.660;2023-09-08T12:45:27;18.90;;;8.00;;
65799;SDS011;52544;48.116;11.660;2023-09-08T12:47:52;14.10;;;7.75;;
65799;SDS011;52544;48.116;11.660;2023-09-08T12:50:20;9.95;;;8.18;;
65799;SDS011;52544;48.116;11.660;2023-09-08T12:52:46;11.98;;;7.85;;
65799;SDS011;52544;48.116;11.660;2023-09-08T12:55:11;13.07;;;8.38;;
65799;SDS011;52544;48.116;11.660;2023-09-08T12:57:37;14.15;;;7.80;;
65799;SDS011;52544;48.116;11.660;2023-09-08T13:00:03;13.20;;;8.35;;
65799;SDS011;52544;48.116;11.660;2023-09-08T13:02:29;11.50;;;7.47;;
65799;SDS011;52544;48.116;11.660;2023-09-08T13:04:54;11.95;;;8.18;;
65799;SDS011;52544;48.116;11.660;2023-09-08T13:07:20;11.18;;;7.43;;
65799;SDS011;52544;48.116;11.660;2023-09-08T13:09:46;10.10;;;7.70;;
65799;SDS011;52544;48.116;11.660;2023-09-08T13:12:11;12.60;;;7.43;;
65799;SDS011;52544;48.116;11.660;2023-09-08T13:14:38;11.40;;;7.50;;
65799;SDS011;52544;48.116;11.660;2023-09-08T13:17:04;12.18;;;8.02;;
65799;SDS011;52544;48.116;11.660;2023-09-08T13:19:29;12.95;;;7.90;;
65799;SDS011;52544;48.116;11.660;2023-09-08T13:21:55;12.10;;;8.13;;
65799;SDS011;52544;48.116;11.660;2023-09-08T13:24:21;13.00;;;7.32;;
65799;SDS011;52544;48.116;11.660;2023-09-08T13:26:47;12.10;;;7.28;;
65799;SDS011;52544;48.116;11.660;2023-09-08T13:29:12;8.93;;;7.15;;
65799;SDS011;52544;48.116;11.660;2023-09-08T13:31:38;8.73;;;7.22;;
65799;SDS011;52544;48.116;11.660;2023-09-08T13:34:03;11.02;;;7.43;;
65799;SDS011;52544;48.116;11.660;2023-09-08T13:36:29;9.32;;;7.43;;
65799;SDS011;52544;48.116;11.660;2023-09-08T13:38:54;10.32;;;7.93;;
65799;SDS011;52544;48.116;11.660;2023-09-08T13:41:19;9.90;;;7.07;;
65799;SDS011;52544;48.116;11.660;2023-09-08T13:43:45;11.02;;;7.72;;
65799;SDS011;52544;48.116;11.660;2023-09-08T13:46:10;12.23;;;6.95;;
65799;SDS011;52544;48.116;11.660;2023-09-08T13:48:35;10.13;;;7.63;;
65799;SDS011;52544;48.116;11.660;2023-09-08T13:51:01;11.80;;;7.18;;
65799;SDS011;52544;48.116;11.660;2023-09-08T13:53:28;12.70;;;8.00;;
65799;SDS011;52544;48.116;11.660;2023-09-08T13:55:55;14.32;;;7.47;;
65799;SDS011;52544;48.116;11.660;2023-09-08T13:58:20;9.95;;;7.60;;
65799;SDS011;52544;48.116;11.660;2023-09-08T14:00:46;14.93;;;6.95;;
65799;SDS011;52544;48.116;11.660;2023-09-08T14:03:14;13.25;;;7.68;;
65799;SDS011;52544;48.116;11.660;2023-09-08T14:05:39;9.88;;;7.50;;
65799;SDS011;52544;48.116;11.660;2023-09-08T14:08:05;9.45;;;7.57;;
65799;SDS011;52544;48.116;11.660;2023-09-08T14:10:30;10.32;;;7.13;;
65799;SDS011;52544;48.116;11.660;2023-09-08T14:12:56;14.23;;;7.45;;
65799;SDS011;52544;48.116;11.660;2023-09-08T14:15:21;12.45;;;7.00;;
65799;SDS011;52544;48.116;11.660;2023-09-08T14:17:47;10.45;;;7.53;;
65799;SDS011;52544;48.116;11.660;2023-09-08T14:20:12;9.13;;;7.05;;
65799;SDS011;52544;48.116;11.660;2023-09-08T14:22:37;9.02;;;6.90;;
65799;SDS011;52544;48.116;11.660;2023-09-08T14:25:04;13.45;;;7.30;;
65799;SDS011;52544;48.116;11.660;2023-09-08T14:27:29;10.05;;;7.38;;
65799;SDS011;52544;48.116;11.660;2023-09-08T14:29:55;10.63;;;6.80;;